TimeEDT,TemperatureF,Dew PointF,Humidity,Sea Level PressureIn,VisibilityMPH,Wind Direction,Wind SpeedMPH,Gust SpeedMPH,PrecipitationIn,Events,Conditions,WindDirDegrees,DateUTC
12:15 AM,45.7,13.5,27,30.14,10.0,South,5.8,-,N/A,,Scattered Clouds,180,2013-04-07 04:15:00
12:35 AM,45.7,14.0,28,30.15,10.0,South,6.9,-,N/A,,Scattered Clouds,180,2013-04-07 04:35:00
12:55 AM,45.9,13.6,27,30.14,10.0,South,8.1,-,N/A,,Mostly Cloudy,180,2013-04-07 04:55:00
1:15 AM,45.7,13.8,28,30.13,10.0,South,9.2,-,N/A,,Overcast,170,2013-04-07 05:15:00
1:35 AM,45.5,14.5,29,30.13,10.0,South,11.5,-,N/A,,Overcast,180,2013-04-07 05:35:00
1:55 AM,45.5,15.3,30,30.13,10.0,South,9.2,-,N/A,,Mostly Cloudy,190,2013-04-07 05:55:00
2:15 AM,45.5,15.4,30,30.12,10.0,South,10.4,-,N/A,,Overcast,180,2013-04-07 06:15:00
2:35 AM,45.1,15.8,31,30.11,10.0,South,9.2,16.1,N/A,,Mostly Cloudy,190,2013-04-07 06:35:00
2:55 AM,45.0,15.8,31,30.11,10.0,South,10.4,20.7,N/A,,Scattered Clouds,180,2013-04-07 06:55:00
3:15 AM,44.6,15.8,31,30.10,10.0,South,13.8,20.7,N/A,,Mostly Cloudy,180,2013-04-07 07:15:00
3:35 AM,44.6,16.3,32,30.09,10.0,South,13.8,18.4,N/A,,Mostly Cloudy,190,2013-04-07 07:35:00
3:55 AM,44.2,16.9,33,30.09,10.0,South,10.4,-,N/A,,Overcast,190,2013-04-07 07:55:00
4:15 AM,44.2,17.2,34,30.09,10.0,South,9.2,20.7,N/A,,Overcast,180,2013-04-07 08:15:00
4:35 AM,44.1,17.6,35,30.08,10.0,South,12.7,17.3,N/A,,Overcast,180,2013-04-07 08:35:00
4:55 AM,43.7,18.5,36,30.07,10.0,South,12.7,18.4,N/A,,Overcast,190,2013-04-07 08:55:00
5:15 AM,43.5,19.2,38,30.07,10.0,South,11.5,17.3,N/A,,Mostly Cloudy,190,2013-04-07 09:15:00
5:35 AM,43.3,19.9,39,30.06,10.0,South,11.5,-,N/A,,Scattered Clouds,190,2013-04-07 09:35:00
5:53 AM,42.8,19.4,39,30.06,-9999.0,South,9.2,-,N/A,,Mostly Cloudy,180,2013-04-07 09:53:00
6:52 AM,42.8,21.2,42,30.06,10.0,South,11.5,-,N/A,,Partly Cloudy,180,2013-04-07 10:52:00
8:53 AM,44.6,23.0,43,30.05,10.0,SSW,11.5,-,N/A,,Partly Cloudy,200,2013-04-07 12:53:00
9:53 AM,46.4,24.8,43,30.02,10.0,SSW,17.3,-,N/A,,Mostly Cloudy,200,2013-04-07 13:53:00
10:53 AM,51.8,26.6,38,30.00,10.0,SSW,17.3,-,N/A,,Scattered Clouds,200,2013-04-07 14:53:00
11:58 AM,55.4,26.6,33,29.98,10.0,SSW,13.8,19.6,N/A,,Overcast,210,2013-04-07 15:58:00
12:58 PM,59.0,28.4,31,29.95,10.0,SSW,16.1,19.6,N/A,,Scattered Clouds,200,2013-04-07 16:58:00
1:53 PM,59.0,28.4,31,29.95,10.0,SSW,15.0,20.7,N/A,,Mostly Cloudy,210,2013-04-07 17:53:00
2:53 PM,60.8,30.2,31,29.92,10.0,SSW,10.4,-,N/A,,Mostly Cloudy,210,2013-04-07 18:53:00
3:53 PM,62.6,32.0,32,29.90,10.0,SSW,9.2,17.3,N/A,,Mostly Cloudy,200,2013-04-07 19:53:00
4:53 PM,64.4,32.0,30,29.89,10.0,SSW,10.4,20.7,N/A,,Mostly Cloudy,200,2013-04-07 20:53:00
5:53 PM,64.4,32.0,30,29.90,10.0,SSW,11.5,-,N/A,,Mostly Cloudy,200,2013-04-07 21:53:00
6:53 PM,64.4,33.8,32,29.91,10.0,SSW,13.8,-,N/A,,Mostly Cloudy,200,2013-04-07 22:53:00
7:53 PM,60.8,35.6,39,29.92,9.0,South,5.8,-,N/A,,Mostly Cloudy,180,2013-04-07 23:53:00
8:04 PM,60.8,35.6,39,29.92,6.0,WSW,5.8,-,N/A,Thunderstorm,Mostly Cloudy,240,2013-04-08 00:04:00
8:14 PM,59.0,42.8,55,29.95,4.0,WSW,18.4,39.1,N/A,Rain-Thunderstorm,Thunderstorms and Rain,240,2013-04-08 00:14:00
8:40 PM,53.6,46.4,77,29.93,10.0,South,5.8,-,N/A,,Mostly Cloudy,170,2013-04-08 00:40:00
8:53 PM,53.6,44.6,72,29.93,10.0,South,4.6,-,N/A,,Scattered Clouds,170,2013-04-08 00:53:00
9:35 PM,52.9,45.9,77,29.95,10.0,WSW,5.8,-,N/A,,Scattered Clouds,250,2013-04-08 01:35:00
9:55 PM,52.9,46.8,80,29.96,10.0,WNW,8.1,-,N/A,,Mostly Cloudy,300,2013-04-08 01:55:00
10:15 PM,53.1,45.5,75,29.96,10.0,West,6.9,-,N/A,,Scattered Clouds,280,2013-04-08 02:15:00
10:35 PM,56.1,44.8,66,29.96,10.0,West,3.5,-,N/A,,Mostly Cloudy,280,2013-04-08 02:35:00
10:55 PM,54.5,44.4,69,29.96,10.0,SSW,4.6,-,N/A,,Mostly Cloudy,210,2013-04-08 02:55:00
11:15 PM,54.5,43.9,67,29.96,10.0,WSW,8.1,-,N/A,,Clear,250,2013-04-08 03:15:00
11:35 PM,51.1,43.3,75,29.97,10.0,SSW,4.6,-,N/A,,Clear,210,2013-04-08 03:35:00
11:55 PM,50.7,44.4,79,29.98,10.0,Calm,Calm,-,N/A,,Clear,0,2013-04-08 03:55:00